createdAt,value
2022-10-09T00:00:01.885Z,98891.25
2022-10-09T00:02:44.518Z,98888.03
2022-10-09T00:05:14.769Z,98896.00
2022-10-09T00:07:44.783Z,98897.09
2022-10-09T00:10:14.804Z,98895.75
2022-10-09T00:12:44.761Z,98887.50
2022-10-09T00:15:15.223Z,98893.91
2022-10-09T00:17:48.003Z,98885.13
2022-10-09T00:20:18.436Z,98873.16
2022-10-09T00:22:48.668Z,98883.00
2022-10-09T00:25:18.990Z,98888.16
2022-10-09T00:27:49.133Z,98886.59
2022-10-09T00:30:19.307Z,98885.69
2022-10-09T00:32:51.824Z,98882.50
2022-10-09T00:35:22.013Z,98878.41
2022-10-09T00:37:52.072Z,98878.78
2022-10-09T00:40:22.076Z,98872.69
2022-10-09T00:42:59.604Z,98874.31
2022-10-09T00:45:30.675Z,98882.94
2022-10-09T00:48:09.403Z,98876.16
2022-10-09T00:50:47.201Z,98877.78
2022-10-09T00:53:23.037Z,98874.06
2022-10-09T00:55:53.883Z,98874.06
2022-10-09T00:58:26.320Z,98872.72
2022-10-09T01:00:57.002Z,98870.09
2022-10-09T01:03:29.710Z,98864.63
2022-10-09T01:06:12.795Z,98871.38
2022-10-09T01:08:54.190Z,98871.81
2022-10-09T01:11:40.233Z,98868.50
2022-10-09T01:14:23.554Z,98861.06
2022-10-09T01:17:05.287Z,98860.81
2022-10-09T01:20:12.897Z,98862.38
2022-10-09T01:23:02.333Z,98854.94
2022-10-09T01:25:38.674Z,98859.22
2022-10-09T01:28:12.544Z,98853.13
2022-10-09T01:30:42.899Z,98852.97
2022-10-09T01:33:14.208Z,98840.19
2022-10-09T01:35:47.574Z,98841.13
2022-10-09T01:38:20.271Z,98845.66
2022-10-09T01:40:50.426Z,98841.16
2022-10-09T01:43:23.429Z,98839.69
2022-10-09T01:45:53.631Z,98832.09
2022-10-09T01:48:28.032Z,98822.53
2022-10-09T01:51:05.145Z,98831.72
2022-10-09T01:53:40.443Z,98824.16
2022-10-09T01:56:17.427Z,98819.91
2022-10-09T01:58:59.344Z,98815.66
2022-10-09T02:01:34.052Z,98811.63
2022-10-09T02:04:11.119Z,98815.38
2022-10-09T02:06:43.709Z,98810.06
2022-10-09T02:09:19.753Z,98807.41
2022-10-09T02:11:58.416Z,98806.38
2022-10-09T02:14:31.181Z,98805.28
2022-10-09T02:17:08.583Z,98797.59
2022-10-09T02:19:45.287Z,98796.91
2022-10-09T02:22:20.205Z,98794.53
2022-10-09T02:24:50.558Z,98793.59
2022-10-09T02:27:24.479Z,98787.22
2022-10-09T02:29:57.711Z,98792.16
2022-10-09T02:32:27.898Z,98791.50
2022-10-09T02:34:58.117Z,98788.28
2022-10-09T02:37:28.261Z,98786.03
2022-10-09T02:39:58.277Z,98779.91
2022-10-09T02:42:28.609Z,98776.56
2022-10-09T02:45:01.727Z,98775.81
2022-10-09T02:47:31.764Z,98780.59
2022-10-09T02:50:01.748Z,98782.19
2022-10-09T02:52:31.789Z,98779.78
2022-10-09T02:55:01.821Z,98773.41
2022-10-09T02:57:31.871Z,98779.78
2022-10-09T03:00:04.510Z,98775.53
2022-10-09T03:02:34.611Z,98769.94
2022-10-09T03:05:04.712Z,98780.84
2022-10-09T03:07:35.057Z,98771.81
2022-10-09T03:10:05.080Z,98776.06
2022-10-09T03:12:35.072Z,98777.25
2022-10-09T03:15:09.466Z,98775.53
2022-10-09T03:17:39.442Z,98777.66
2022-10-09T03:20:10.926Z,98774.88
2022-10-09T03:22:40.920Z,98778.47
2022-10-09T03:25:11.778Z,98772.84
2022-10-09T03:27:41.904Z,98772.06
2022-10-09T03:30:16.220Z,98767.28
2022-10-09T03:32:46.921Z,98772.34
2022-10-09T03:35:17.288Z,98771.44
2022-10-09T03:37:47.484Z,98773.94
2022-10-09T03:40:18.473Z,98776.56
2022-10-09T03:42:48.727Z,98771.28
2022-10-09T03:45:21.861Z,98773.69
2022-10-09T03:47:51.847Z,98773.94
2022-10-09T03:50:21.882Z,98765.16
2022-10-09T03:52:52.001Z,98774.47
2022-10-09T03:55:22.266Z,98767.03
2022-10-09T03:57:52.246Z,98766.50
2022-10-09T04:00:25.677Z,98764.63
2022-10-09T04:02:55.818Z,98764.38
2022-10-09T04:05:26.151Z,98768.63
2022-10-09T04:07:56.147Z,98763.31
2022-10-09T04:10:26.132Z,98768.09
2022-10-09T04:12:56.160Z,98760.00
2022-10-09T04:15:28.858Z,98758.25
2022-10-09T04:17:59.086Z,98767.00
2022-10-09T04:20:29.445Z,98767.00
2022-10-09T04:22:59.522Z,98771.00
2022-10-09T04:25:29.556Z,98762.63
2022-10-09T04:27:59.546Z,98759.44
2022-10-09T04:30:32.155Z,98768.06
2022-10-09T04:33:02.125Z,98759.97
2022-10-09T04:35:32.119Z,98756.38
2022-10-09T04:38:02.333Z,98759.44
2022-10-09T04:40:32.377Z,98756.88
2022-10-09T04:43:02.544Z,98757.81
2022-10-09T04:45:42.048Z,98756.09
2022-10-09T04:48:12.098Z,98755.25
2022-10-09T04:50:42.349Z,98758.19
2022-10-09T04:53:12.467Z,98754.72
2022-10-09T04:55:42.904Z,98749.41
2022-10-09T04:58:14.998Z,98753.16
2022-10-09T05:00:49.526Z,98752.16
2022-10-09T05:03:19.568Z,98756.78
2022-10-09T05:05:49.536Z,98752.97
2022-10-09T05:08:19.544Z,98755.03
2022-10-09T05:10:49.505Z,98744.13
2022-10-09T05:13:19.859Z,98752.47
2022-10-09T05:15:52.442Z,98755.25
2022-10-09T05:18:22.453Z,98750.59
2022-10-09T05:20:52.469Z,98749.00
2022-10-09T05:23:22.489Z,98753.09
2022-10-09T05:25:58.547Z,98752.56
2022-10-09T05:28:29.060Z,98752.94
2022-10-09T05:31:02.160Z,98754.00
2022-10-09T05:33:32.964Z,98750.72
2022-10-09T05:36:06.719Z,98750.16
2022-10-09T05:38:37.224Z,98754.41
2022-10-09T05:41:09.923Z,98750.03
2022-10-09T05:43:42.505Z,98755.75
2022-10-09T05:46:18.039Z,98754.16
2022-10-09T05:48:53.336Z,98755.63
2022-10-09T05:51:26.548Z,98754.47
2022-10-09T05:53:57.641Z,98753.91
2022-10-09T05:56:30.825Z,98756.72
2022-10-09T05:59:03.642Z,98757.44
2022-10-09T06:01:39.257Z,98754.25
2022-10-09T06:04:11.722Z,98753.19
2022-10-09T06:06:43.459Z,98752.66
2022-10-09T06:09:14.917Z,98743.38
2022-10-09T06:11:45.657Z,98747.91
2022-10-09T06:14:16.516Z,98747.38
2022-10-09T06:16:49.675Z,98749.91
2022-10-09T06:19:23.032Z,98756.41
2022-10-09T06:21:53.248Z,98758.66
2022-10-09T06:24:29.007Z,98754.75
2022-10-09T06:27:00.264Z,98761.84
2022-10-09T06:29:30.804Z,98755.78
2022-10-09T06:32:03.505Z,98763.03
2022-10-09T06:34:33.822Z,98762.94
2022-10-09T06:37:03.831Z,98767.56
2022-10-09T06:39:33.850Z,98769.56
2022-10-09T06:42:04.266Z,98771.91
2022-10-09T06:44:44.517Z,98771.16
2022-10-09T06:47:17.207Z,98777.53
2022-10-09T06:49:47.302Z,98778.38
2022-10-09T06:52:17.546Z,98778.72
2022-10-09T06:54:47.917Z,98787.03
2022-10-09T06:57:18.278Z,98777.88
2022-10-09T06:59:50.142Z,98781.47
2022-10-09T07:02:23.063Z,98788.56
2022-10-09T07:04:53.416Z,98789.75
2022-10-09T07:07:23.653Z,98790.09
2022-10-09T07:09:54.563Z,98793.16
2022-10-09T07:12:25.264Z,98789.63
2022-10-09T07:14:55.541Z,98789.88
2022-10-09T07:17:30.094Z,98789.38
2022-10-09T07:20:00.412Z,98798.16
2022-10-09T07:22:30.956Z,98786.41
2022-10-09T07:25:01.225Z,98800.47
2022-10-09T07:27:32.010Z,98800.44
2022-10-09T07:30:02.371Z,98799.28
2022-10-09T07:32:35.266Z,98790.22
2022-10-09T07:35:05.916Z,98788.38
2022-10-09T07:37:36.286Z,98783.53
2022-10-09T07:40:07.236Z,98784.38
2022-10-09T07:42:37.557Z,98776.53
2022-10-09T07:45:09.001Z,98780.84
2022-10-09T07:47:42.120Z,98777.41
2022-10-09T07:50:12.640Z,98779.47
2022-10-09T07:52:42.952Z,98773.47
2022-10-09T07:55:13.405Z,98777.97
2022-10-09T07:57:43.736Z,98770.69
2022-10-09T08:00:15.637Z,98774.94
2022-10-09T08:02:48.850Z,98777.94
2022-10-09T08:05:19.828Z,98773.38
2022-10-09T08:07:50.184Z,98766.88
2022-10-09T08:10:20.655Z,98771.47
2022-10-09T08:12:51.105Z,98772.41
2022-10-09T08:15:21.609Z,98763.09
2022-10-09T08:17:55.903Z,98769.38
2022-10-09T08:20:26.109Z,98762.91
2022-10-09T08:22:56.092Z,98769.19
2022-10-09T08:25:26.161Z,98764.41
2022-10-09T08:27:56.732Z,98766.28
2022-10-09T08:30:26.674Z,98765.50
2022-10-09T08:32:59.324Z,98764.88
2022-10-09T08:35:33.696Z,98762.78
2022-10-09T08:38:04.542Z,98757.13
2022-10-09T08:40:47.877Z,98752.88
2022-10-09T08:43:25.651Z,98750.91
2022-10-09T08:45:57.782Z,98754.84
2022-10-09T08:48:36.178Z,98757.13
2022-10-09T08:51:10.137Z,98749.00
2022-10-09T08:53:49.039Z,98760.59
2022-10-09T08:56:19.550Z,98746.78
2022-10-09T08:58:49.605Z,98744.91
2022-10-09T09:01:32.817Z,98745.72
2022-10-09T09:04:42.161Z,98752.44
2022-10-09T09:07:26.191Z,98749.97
2022-10-09T09:10:05.595Z,98750.66
2022-10-09T09:12:47.398Z,98751.16
2022-10-09T09:15:42.255Z,98744.22
2022-10-09T09:18:43.339Z,98734.88
2022-10-09T09:21:35.275Z,98730.50
2022-10-09T09:24:14.342Z,98730.03
2022-10-09T09:26:50.808Z,98718.31
2022-10-09T09:29:26.065Z,98721.06
2022-10-09T09:32:02.408Z,98720.78
2022-10-09T09:34:41.858Z,98714.88
2022-10-09T09:37:15.582Z,98716.25
2022-10-09T09:42:36.420Z,98711.00
2022-10-09T09:45:15.537Z,98706.00
2022-10-09T09:47:52.199Z,98697.78
2022-10-09T09:50:48.517Z,98704.59
2022-10-09T09:53:33.202Z,98693.91
2022-10-09T09:56:03.781Z,98694.00
2022-10-09T09:58:41.338Z,98691.41
2022-10-09T10:01:24.278Z,98694.00
2022-10-09T10:03:57.032Z,98692.25
2022-10-09T10:06:32.610Z,98687.28
2022-10-09T10:09:15.411Z,98682.50
2022-10-09T10:11:50.527Z,98681.13
2022-10-09T10:14:21.373Z,98677.28
2022-10-09T10:16:54.854Z,98664.94
2022-10-09T10:19:28.397Z,98666.91
2022-10-09T10:22:00.418Z,98664.00
2022-10-09T10:24:41.705Z,98664.06
2022-10-09T10:27:25.395Z,98657.53
2022-10-09T10:30:01.960Z,98647.47
2022-10-09T10:32:37.788Z,98648.78
2022-10-09T10:35:16.614Z,98639.19
2022-10-09T10:37:57.815Z,98635.03
2022-10-09T10:40:37.757Z,98640.22
2022-10-09T10:43:18.488Z,98635.69
2022-10-09T10:46:02.808Z,98630.34
2022-10-09T10:48:36.684Z,98627.44
2022-10-09T10:51:25.840Z,98617.50
2022-10-09T10:54:13.533Z,98620.16
2022-10-09T10:56:51.864Z,98618.66
2022-10-09T10:59:41.507Z,98606.41
2022-10-09T11:03:10.721Z,98613.91
2022-10-09T11:05:51.735Z,98604.44
2022-10-09T11:08:51.300Z,98598.91
2022-10-09T11:11:33.568Z,98595.34
2022-10-09T11:14:26.910Z,98600.66
2022-10-09T11:17:08.853Z,98588.78
2022-10-09T11:20:05.524Z,98596.38
2022-10-09T11:23:06.283Z,98595.25
2022-10-09T11:25:47.100Z,98588.63
2022-10-09T11:28:22.232Z,98583.69
2022-10-09T11:31:04.928Z,98576.66
2022-10-09T11:33:42.812Z,98569.28
2022-10-09T11:36:21.402Z,98569.66
2022-10-09T11:39:01.144Z,98565.66
2022-10-09T11:41:33.842Z,98560.59
2022-10-09T11:44:26.819Z,98552.38
2022-10-09T11:47:12.932Z,98558.53
2022-10-09T11:50:00.118Z,98553.88
2022-10-09T11:52:44.428Z,98536.03
2022-10-09T11:55:27.741Z,98543.97
2022-10-09T11:57:58.005Z,98546.72
2022-10-09T12:00:35.021Z,98527.63
2022-10-09T12:03:10.307Z,98530.53
2022-10-09T12:05:45.746Z,98525.88
2022-10-09T12:08:20.198Z,98515.66
2022-10-09T12:10:57.937Z,98514.59
2022-10-09T12:13:45.178Z,98509.78
2022-10-09T12:16:42.284Z,98505.88
2022-10-09T12:19:24.916Z,98509.50
2022-10-09T12:22:08.994Z,98510.09
2022-10-09T12:24:45.434Z,98502.25
2022-10-09T12:27:23.673Z,98506.50
2022-10-09T12:29:58.940Z,98489.81
2022-10-09T12:32:35.060Z,98482.84
2022-10-09T12:35:24.029Z,98483.69
2022-10-09T12:37:55.097Z,98475.06
2022-10-09T12:40:29.036Z,98469.28
2022-10-09T12:43:02.285Z,98476.50
2022-10-09T12:45:34.720Z,98467.78
2022-10-09T12:48:15.167Z,98460.78
2022-10-09T12:50:47.745Z,98454.50
2022-10-09T12:53:20.734Z,98453.66
2022-10-09T12:55:55.324Z,98453.44
2022-10-09T12:58:29.440Z,98447.66
2022-10-09T13:01:03.268Z,98442.81
2022-10-09T13:03:39.760Z,98439.53
2022-10-09T13:06:20.598Z,98445.47
2022-10-09T13:08:56.882Z,98436.31
2022-10-09T13:11:34.876Z,98432.59
2022-10-09T13:14:05.210Z,98434.38
2022-10-09T13:16:47.801Z,98435.88
2022-10-09T13:19:28.650Z,98439.25
2022-10-09T13:22:18.786Z,98431.31
2022-10-09T13:24:50.069Z,98433.53
2022-10-09T13:27:21.717Z,98421.00
2022-10-09T13:29:52.117Z,98432.41
2022-10-09T13:32:24.010Z,98424.53
2022-10-09T13:34:58.058Z,98413.28
2022-10-09T13:37:30.856Z,98412.81
2022-10-09T13:40:02.678Z,98406.66
2022-10-09T13:42:38.390Z,98408.25
2022-10-09T13:45:11.026Z,98413.63
2022-10-09T13:47:41.229Z,98404.28
2022-10-09T13:50:12.639Z,98394.63
2022-10-09T13:52:45.642Z,98399.03
2022-10-09T13:55:17.167Z,98402.06
2022-10-09T13:57:47.349Z,98389.97
2022-10-09T14:00:18.056Z,98390.50
2022-10-09T14:02:48.125Z,98388.50
2022-10-09T14:05:18.310Z,98381.22
2022-10-09T14:07:51.578Z,98377.19
2022-10-09T14:10:23.961Z,98381.09
2022-10-09T14:12:54.433Z,98375.16
2022-10-09T14:15:25.441Z,98363.72
2022-10-09T14:17:55.491Z,98370.16
2022-10-09T14:20:27.075Z,98366.44
2022-10-09T14:22:59.745Z,98358.09
2022-10-09T14:25:29.940Z,98356.09
2022-10-09T14:28:00.034Z,98360.59
2022-10-09T14:30:30.098Z,98354.31
2022-10-09T14:33:01.353Z,98351.06
2022-10-09T14:35:32.870Z,98350.88
2022-10-09T14:38:05.450Z,98348.97
2022-10-09T14:40:37.807Z,98356.59
2022-10-09T14:43:07.868Z,98349.84
2022-10-09T14:45:37.866Z,98346.25
2022-10-09T14:48:08.058Z,98355.63
2022-10-09T14:50:39.122Z,98343.66
2022-10-09T14:53:11.710Z,98341.16
2022-10-09T14:55:41.675Z,98337.47
2022-10-09T14:58:11.634Z,98327.34
2022-10-09T15:00:48.237Z,98328.25
2022-10-09T15:03:18.244Z,98331.00
2022-10-09T15:05:48.200Z,98327.75
2022-10-09T15:08:20.849Z,98316.91
2022-10-09T15:10:53.764Z,98317.00
2022-10-09T15:13:23.952Z,98309.59
2022-10-09T15:15:53.948Z,98312.03
2022-10-09T15:18:24.158Z,98312.91
2022-10-09T15:20:54.148Z,98314.03
2022-10-09T15:23:26.911Z,98305.47
2022-10-09T15:26:00.694Z,98309.44
2022-10-09T15:28:31.159Z,98307.16
2022-10-09T15:31:03.502Z,98306.66
2022-10-09T15:33:33.760Z,98304.34
2022-10-09T15:36:05.516Z,98298.19
2022-10-09T15:38:38.171Z,98294.47
2022-10-09T15:41:08.672Z,98291.97
2022-10-09T15:43:41.137Z,98297.75
2022-10-09T15:46:11.270Z,98303.03
2022-10-09T15:48:41.410Z,98292.97
2022-10-09T15:51:13.616Z,98285.50
2022-10-09T15:53:49.701Z,98285.34
2022-10-09T15:56:23.954Z,98285.03
2022-10-09T15:58:55.715Z,98282.19
2022-10-09T16:01:26.452Z,98280.25
2022-10-09T16:03:56.636Z,98283.09
2022-10-09T16:06:27.076Z,98281.22
2022-10-09T16:09:03.983Z,98280.50
2022-10-09T16:11:34.741Z,98280.94
2022-10-09T16:14:05.130Z,98270.94
2022-10-09T16:16:35.320Z,98267.69
2022-10-09T16:19:07.025Z,98271.69
2022-10-09T16:21:37.047Z,98272.94
2022-10-09T16:24:09.707Z,98268.47
2022-10-09T16:26:39.745Z,98263.59
2022-10-09T16:29:09.831Z,98257.75
2022-10-09T16:31:40.066Z,98257.81
2022-10-09T16:34:10.680Z,98254.28
2022-10-09T16:36:40.837Z,98253.94
2022-10-09T16:39:13.363Z,98255.56
2022-10-09T16:41:43.557Z,98255.97
2022-10-09T16:44:17.041Z,98253.44
2022-10-09T16:46:47.121Z,98252.47
2022-10-09T16:49:22.725Z,98261.31
2022-10-09T16:51:54.987Z,98256.03
2022-10-09T16:54:27.621Z,98263.91
2022-10-09T16:56:58.320Z,98264.50
2022-10-09T16:59:28.309Z,98259.78
2022-10-09T17:02:00.275Z,98259.59
2022-10-09T17:04:30.348Z,98261.34
2022-10-09T17:07:00.516Z,98265.69
2022-10-09T17:09:34.217Z,98261.94
2022-10-09T17:12:04.217Z,98267.44
2022-10-09T17:14:35.596Z,98263.50
2022-10-09T17:17:05.726Z,98272.94
2022-10-09T17:19:35.995Z,98269.00
2022-10-09T17:22:06.755Z,98270.94
2022-10-09T17:24:39.461Z,98275.59
2022-10-09T17:27:10.034Z,98261.41
2022-10-09T17:29:40.406Z,98270.25
2022-10-09T17:32:10.389Z,98269.19
2022-10-09T17:34:45.621Z,98275.44
2022-10-09T17:37:16.068Z,98272.13
2022-10-09T17:39:52.244Z,98261.13
2022-10-09T17:42:22.491Z,98273.66
2022-10-09T17:44:52.491Z,98268.41
2022-10-09T17:47:22.481Z,98272.50
2022-10-09T17:49:52.486Z,98271.09
2022-10-09T17:52:22.524Z,98270.72
2022-10-09T17:54:55.255Z,98273.81
2022-10-09T17:57:25.389Z,98271.25
2022-10-09T17:59:55.545Z,98281.00
2022-10-09T18:02:25.538Z,98271.34
2022-10-09T18:04:58.209Z,98266.84
2022-10-09T18:07:28.381Z,98263.47
2022-10-09T18:10:01.338Z,98267.75
2022-10-09T18:12:31.341Z,98264.28
2022-10-09T18:15:02.968Z,98261.66
2022-10-09T18:17:34.500Z,98266.50
2022-10-09T18:20:04.788Z,98257.84
2022-10-09T18:22:35.248Z,98261.13
2022-10-09T18:25:09.019Z,98261.75
2022-10-09T18:27:38.989Z,98254.31
2022-10-09T18:30:10.948Z,98253.09
2022-10-09T18:32:40.976Z,98257.00
2022-10-09T18:35:12.037Z,98253.56
2022-10-09T18:37:42.091Z,98255.13
2022-10-09T18:40:14.790Z,98249.94
2022-10-09T18:42:44.803Z,98248.75
2022-10-09T18:45:17.561Z,98250.84
2022-10-09T18:47:47.867Z,98253.94
2022-10-09T18:50:19.110Z,98252.09
2022-10-09T18:52:49.530Z,98249.53
2022-10-09T18:55:23.293Z,98246.25
2022-10-09T18:57:55.198Z,98247.59
2022-10-09T19:00:25.204Z,98242.72
2022-10-09T19:02:55.392Z,98246.84
2022-10-09T19:05:25.995Z,98234.13
2022-10-09T19:07:56.295Z,98241.16
2022-10-09T19:10:29.230Z,98235.69
2022-10-09T19:12:59.470Z,98241.75
2022-10-09T19:15:29.409Z,98238.06
2022-10-09T19:17:59.518Z,98239.44
2022-10-09T19:20:29.658Z,98239.75
2022-10-09T19:22:59.678Z,98242.84
2022-10-09T19:25:32.237Z,98246.13
2022-10-09T19:28:02.280Z,98244.09
2022-10-09T19:30:32.259Z,98237.31
2022-10-09T19:33:02.246Z,98239.94
2022-10-09T19:35:32.233Z,98229.75
2022-10-09T19:38:03.246Z,98238.72
2022-10-09T19:40:37.777Z,98230.22
2022-10-09T19:43:07.859Z,98231.91
2022-10-09T19:45:40.447Z,98231.06
2022-10-09T19:48:11.447Z,98228.28
2022-10-09T19:50:44.836Z,98231.72
2022-10-09T19:53:15.741Z,98234.72
2022-10-09T19:55:48.343Z,98233.41
2022-10-09T19:58:18.436Z,98232.22
2022-10-09T20:00:49.372Z,98221.78
2022-10-09T20:03:19.431Z,98236.06
2022-10-09T20:05:49.410Z,98228.19
2022-10-09T20:08:19.418Z,98225.38
2022-10-09T20:10:52.020Z,98226.34
2022-10-09T20:13:21.996Z,98230.63
2022-10-09T20:15:51.972Z,98231.19
2022-10-09T20:18:21.919Z,98232.31
2022-10-09T20:20:52.293Z,98233.91
2022-10-09T20:23:22.577Z,98233.91
2022-10-09T20:26:02.993Z,98234.88
2022-10-09T20:28:34.692Z,98223.72
2022-10-09T20:31:07.907Z,98233.63
2022-10-09T20:33:39.722Z,98230.66
2022-10-09T20:36:11.128Z,98230.66
2022-10-09T20:38:41.131Z,98234.22
2022-10-09T20:41:13.921Z,98236.72
2022-10-09T20:43:45.006Z,98231.81
2022-10-09T20:46:17.638Z,98231.06
2022-10-09T20:48:47.725Z,98232.53
2022-10-09T20:51:18.255Z,98226.91
2022-10-09T20:53:48.718Z,98224.88
2022-10-09T20:56:21.424Z,98231.59
2022-10-09T20:58:51.714Z,98228.06
2022-10-09T21:01:22.476Z,98223.22
2022-10-09T21:03:53.278Z,98226.19
2022-10-09T21:06:24.591Z,98223.09
2022-10-09T21:08:54.807Z,98224.66
2022-10-09T21:11:28.260Z,98226.25
2022-10-09T21:13:58.263Z,98238.47
2022-10-09T21:16:28.908Z,98230.34
2022-10-09T21:19:02.006Z,98229.22
2022-10-09T21:21:33.256Z,98234.31
2022-10-09T21:24:04.803Z,98239.28
2022-10-09T21:26:39.305Z,98235.56
2022-10-09T21:29:10.052Z,98232.84
2022-10-09T21:31:40.053Z,98236.38
2022-10-09T21:34:10.049Z,98228.91
2022-10-09T21:39:35.887Z,98237.94
2022-10-09T21:42:08.805Z,98234.41
2022-10-09T21:44:38.881Z,98234.41
2022-10-09T21:47:09.091Z,98228.09
2022-10-09T21:49:39.036Z,98223.75
2022-10-09T21:52:09.066Z,98216.66
2022-10-09T21:54:39.344Z,98221.81
2022-10-09T21:57:11.941Z,98216.88
2022-10-09T21:59:43.231Z,98221.00
2022-10-09T22:02:13.304Z,98219.44
2022-10-09T22:04:43.532Z,98224.53
2022-10-09T22:07:13.509Z,98227.09
2022-10-09T22:09:43.528Z,98217.28
2022-10-09T22:12:16.111Z,98222.63
2022-10-09T22:14:46.185Z,98220.84
2022-10-09T22:17:16.225Z,98220.25
2022-10-09T22:19:46.460Z,98221.22
2022-10-09T22:22:16.573Z,98217.06
2022-10-09T22:24:46.843Z,98214.28
2022-10-09T22:27:19.504Z,98212.28
2022-10-09T22:29:49.544Z,98215.81
2022-10-09T22:32:19.550Z,98205.97
2022-10-09T22:34:52.327Z,98211.66
2022-10-09T22:37:22.370Z,98211.25
2022-10-09T22:39:52.807Z,98209.66
2022-10-09T22:42:25.412Z,98203.91
2022-10-09T22:44:55.511Z,98198.19
2022-10-09T22:47:25.523Z,98196.72
2022-10-09T22:49:55.538Z,98193.72
2022-10-09T22:52:25.620Z,98194.63
2022-10-09T22:54:56.904Z,98187.16
2022-10-09T22:57:29.489Z,98185.34
2022-10-09T22:59:59.718Z,98182.56
2022-10-09T23:02:29.910Z,98181.91
2022-10-09T23:04:59.870Z,98181.91
2022-10-09T23:07:29.840Z,98186.75
2022-10-09T23:09:59.987Z,98182.94
2022-10-09T23:12:32.725Z,98179.19
2022-10-09T23:15:02.705Z,98181.50
2022-10-09T23:17:32.691Z,98179.81
2022-10-09T23:20:02.722Z,98177.56
2022-10-09T23:22:32.746Z,98187.91
2022-10-09T23:25:02.780Z,98185.91
2022-10-09T23:27:35.434Z,98181.19
2022-10-09T23:30:05.513Z,98186.22
2022-10-09T23:32:35.511Z,98182.69
2022-10-09T23:35:05.705Z,98185.84
2022-10-09T23:37:35.735Z,98188.56
2022-10-09T23:40:06.138Z,98183.31
2022-10-09T23:42:38.747Z,98189.38
2022-10-09T23:45:11.816Z,98180.94
2022-10-09T23:47:42.299Z,98184.28
2022-10-09T23:50:12.622Z,98191.72
2022-10-09T23:52:42.658Z,98183.31
2022-10-09T23:55:12.984Z,98193.13
2022-10-09T23:57:45.586Z,98185.72
